Time;durP1;ratioP1;P1;durP2;ratioP2;P2;SDS_P1;SDS_P2;PMS_P1;PMS_P2;Temp;Humidity;BMP_temperature;BMP_pressure;BME280_temperature;BME280_humidity;BME280_pressure;Samples;Min_cycle;Max_cycle;Signal;HPM_P1;HPM_P2
2023/06/03 00:00:22;;;;;;;5.30;2.40;;;;;;;10.72;100.00;101675.81;5034210;28;20504;-55
2023/06/03 00:02:49;;;;;;;3.55;1.65;;;;;;;10.67;100.00;101665.69;5040767;28;20037;-56
2023/06/03 00:05:18;;;;;;;8.02;0.80;;;;;;;10.61;100.00;101672.47;5034438;28;20079;-53
2023/06/03 00:07:44;;;;;;;10.25;2.55;;;;;;;10.40;100.00;101670.25;5043271;28;20043;-56
2023/06/03 00:10:10;;;;;;;5.00;1.15;;;;;;;10.43;100.00;101677.88;5035445;28;20033;-56
2023/06/03 00:12:35;;;;;;;5.78;1.33;;;;;;;10.42;100.00;101673.56;5039273;28;21803;-56
2023/06/03 00:15:00;;;;;;;7.07;2.00;;;;;;;10.55;100.00;101675.75;5042145;28;20029;-53
2023/06/03 00:17:27;;;;;;;13.98;3.08;;;;;;;10.68;100.00;101676.09;5023961;28;20032;-53
2023/06/03 00:19:54;;;;;;;4.70;1.20;;;;;;;10.63;100.00;101683.72;5033512;28;20387;-52
2023/06/03 00:22:21;;;;;;;11.15;1.70;;;;;;;10.59;100.00;101673.63;5039055;28;20033;-54
2023/06/03 00:24:47;;;;;;;8.18;1.63;;;;;;;10.59;100.00;101681.59;5041706;28;20062;-54
2023/06/03 00:27:12;;;;;;;12.40;2.10;;;;;;;10.60;100.00;101675.28;5040095;28;20032;-50
2023/06/03 00:29:38;;;;;;;7.15;1.98;;;;;;;10.58;100.00;101678.06;5040046;28;20464;-57
2023/06/03 00:32:04;;;;;;;8.60;2.65;;;;;;;10.20;100.00;101685.56;5038662;28;20106;-56
2023/06/03 00:34:29;;;;;;;14.55;1.20;;;;;;;10.03;100.00;101676.69;5034037;28;20024;-55
2023/06/03 00:36:54;;;;;;;2.50;0.80;;;;;;;10.00;100.00;101676.19;5033405;28;20109;-58
2023/06/03 00:39:19;;;;;;;7.75;0.98;;;;;;;9.92;100.00;101684.09;5038234;28;20060;-55
2023/06/03 00:41:45;;;;;;;7.55;1.08;;;;;;;9.83;100.00;101680.53;5034077;28;20049;-54
2023/06/03 00:44:10;;;;;;;7.75;2.92;;;;;;;9.78;100.00;101681.03;5040238;28;20503;-56
2023/06/03 00:46:35;;;;;;;10.85;1.70;;;;;;;9.68;100.00;101676.81;5042355;28;20025;-53
2023/06/03 00:49:02;;;;;;;9.05;1.17;;;;;;;9.61;100.00;101672.16;5041261;28;20542;-58
2023/06/03 00:51:28;;;;;;;10.38;2.10;;;;;;;9.52;100.00;101682.81;5034184;28;20045;-57
2023/06/03 00:53:53;;;;;;;14.10;1.83;;;;;;;9.49;100.00;101683.13;5034215;28;20196;-53
2023/06/03 00:56:19;;;;;;;9.63;1.55;;;;;;;9.50;100.00;101675.06;5035815;28;20144;-58
2023/06/03 00:58:45;;;;;;;9.10;2.05;;;;;;;9.43;100.00;101665.25;5030909;28;20481;-55
2023/06/03 01:01:12;;;;;;;10.82;2.17;;;;;;;9.30;100.00;101670.94;5041555;28;20041;-56
2023/06/03 01:03:41;;;;;;;6.93;1.80;;;;;;;9.24;100.00;101669.75;5034244;28;20124;-57
2023/06/03 01:06:15;;;;;;;9.57;1.10;;;;;;;9.25;100.00;101679.31;5040179;28;20041;-56
2023/06/03 01:08:53;;;;;;;5.50;1.95;;;;;;;9.25;100.00;101671.38;5036477;28;20049;-55
2023/06/03 01:11:34;;;;;;;10.38;1.35;;;;;;;9.19;100.00;101677.31;5038358;28;20064;-57
2023/06/03 01:14:26;;;;;;;4.97;0.95;;;;;;;9.16;100.00;101672.28;5035494;28;20501;-54
2023/06/03 01:16:52;;;;;;;;;;;;;;;9.34;100.00;101670.44;5041271;28;20037;-56
2023/06/03 01:19:29;;;;;;;5.15;0.75;;;;;;;9.17;100.00;101674.78;5042161;28;19920;-54
2023/06/03 01:22:00;;;;;;;5.13;1.08;;;;;;;9.00;100.00;101674.81;5035123;28;20037;-57
2023/06/03 01:24:26;;;;;;;15.98;2.20;;;;;;;8.99;100.00;101665.22;5035783;28;20032;-53
2023/06/03 01:26:52;;;;;;;5.40;2.85;;;;;;;8.93;100.00;101670.13;5034329;28;20157;-54
2023/06/03 01:29:17;;;;;;;7.10;1.25;;;;;;;8.95;100.00;101670.78;5037961;28;20028;-53
2023/06/03 01:31:43;;;;;;;3.65;1.23;;;;;;;9.00;100.00;101677.44;5037020;28;20084;-54
2023/06/03 01:34:08;;;;;;;5.65;2.13;;;;;;;9.51;100.00;101674.06;5037257;28;20082;-54
2023/06/03 01:36:35;;;;;;;3.67;1.67;;;;;;;9.06;100.00;101674.19;5042657;28;20544;-54
2023/06/03 01:39:02;;;;;;;7.25;2.35;;;;;;;8.89;100.00;101681.16;5033968;28;20037;-53
2023/06/03 01:41:28;;;;;;;6.95;1.52;;;;;;;8.73;100.00;101671.25;5032584;28;20088;-53
2023/06/03 01:43:53;;;;;;;5.03;1.42;;;;;;;8.67;100.00;101669.19;5031142;28;20041;-54
2023/06/03 01:46:19;;;;;;;10.15;1.92;;;;;;;8.74;100.00;101672.91;5035642;28;20132;-52
2023/06/03 01:48:45;;;;;;;5.55;1.42;;;;;;;8.77;100.00;101679.69;5037926;28;20048;-54
2023/06/03 01:51:10;;;;;;;3.92;0.95;;;;;;;8.76;100.00;101676.22;5041217;28;20029;-53
2023/06/03 01:53:35;;;;;;;6.50;2.30;;;;;;;8.73;100.00;101676.53;5041348;28;20035;-51
2023/06/03 01:56:01;;;;;;;5.03;1.27;;;;;;;8.66;100.00;101675.47;5037033;28;20433;-55
2023/06/03 01:58:26;;;;;;;9.27;2.67;;;;;;;8.54;100.00;101672.19;5041907;28;20037;-56
2023/06/03 02:00:51;;;;;;;13.30;2.03;;;;;;;8.59;100.00;101662.00;5039306;28;20049;-55
2023/06/03 02:03:17;;;;;;;8.73;3.08;;;;;;;8.48;100.00;101659.56;5034734;28;20421;-56
2023/06/03 02:05:42;;;;;;;2.17;0.98;;;;;;;8.40;100.00;101665.59;5037809;28;20033;-56
2023/06/03 02:08:08;;;;;;;4.32;1.23;;;;;;;8.46;100.00;101656.25;5038911;28;20100;-54
2023/06/03 02:10:33;;;;;;;4.03;1.90;;;;;;;8.48;100.00;101660.41;5046706;28;20458;-58
2023/06/03 02:12:58;;;;;;;4.65;1.52;;;;;;;8.46;100.00;101656.25;5044182;28;21496;-56
2023/06/03 02:15:24;;;;;;;5.18;1.02;;;;;;;8.41;100.00;101664.59;5039143;28;20038;-54
2023/06/03 02:17:49;;;;;;;2.75;0.95;;;;;;;8.43;100.00;101654.72;5042777;28;20142;-53
2023/06/03 02:20:15;;;;;;;12.13;2.55;;;;;;;8.37;100.00;101654.47;5035547;28;20032;-52
2023/06/03 02:22:40;;;;;;;7.35;1.95;;;;;;;8.34;100.00;101646.81;5033051;28;20111;-58
2023/06/03 02:25:08;;;;;;;5.00;0.90;;;;;;;8.16;100.00;101652.03;5042928;28;20127;-55
2023/06/03 02:27:35;;;;;;;9.27;0.80;;;;;;;8.01;100.00;101641.97;5040402;28;20112;-58
2023/06/03 02:30:00;;;;;;;3.83;0.77;;;;;;;7.93;100.00;101647.16;5041267;28;20029;-54
2023/06/03 02:32:25;;;;;;;4.40;0.93;;;;;;;7.82;100.00;101649.97;5032735;28;20056;-54
2023/06/03 02:34:51;;;;;;;8.45;0.88;;;;;;;7.82;100.00;101649.97;5047254;28;20079;-53
2023/06/03 02:37:17;;;;;;;5.03;0.85;;;;;;;7.78;100.00;101646.78;5042165;28;20033;-55
2023/06/03 02:39:43;;;;;;;1.67;1.52;;;;;;;7.71;100.00;101644.88;5038341;28;20039;-57
2023/06/03 02:42:09;;;;;;;5.72;2.05;;;;;;;7.59;100.00;101652.97;5037887;28;20120;-55
2023/06/03 02:44:35;;;;;;;10.80;1.60;;;;;;;7.48;100.00;101647.84;5043423;28;20119;-56
2023/06/03 02:47:00;;;;;;;5.93;1.15;;;;;;;7.39;100.00;101649.53;5042321;28;20095;-56
2023/06/03 02:49:26;;;;;;;5.30;0.68;;;;;;;7.31;100.00;101645.94;5037515;28;20040;-54
2023/06/03 02:51:51;;;;;;;5.88;1.02;;;;;;;7.28;100.00;101647.06;5039848;28;20045;-53
2023/06/03 02:54:16;;;;;;;5.60;0.85;;;;;;;7.29;100.00;101647.88;5040044;28;20128;-56
2023/06/03 02:56:41;;;;;;;4.60;0.70;;;;;;;7.22;100.00;101651.06;5043388;28;20139;-50
2023/06/03 02:59:07;;;;;;;6.43;1.08;;;;;;;7.21;100.00;101643.31;5034484;28;20021;-52
2023/06/03 03:01:32;;;;;;;5.10;1.40;;;;;;;7.13;100.00;101651.09;5036592;28;20036;-55
2023/06/03 03:03:58;;;;;;;2.30;1.13;;;;;;;7.11;100.00;101651.22;5039888;28;20538;-50
2023/06/03 03:06:24;;;;;;;5.13;1.67;;;;;;;7.07;100.00;101654.28;5031685;28;20508;-56
2023/06/03 03:08:51;;;;;;;3.33;0.70;;;;;;;6.99;100.00;101647.88;5040819;28;20060;-56
2023/06/03 03:11:16;;;;;;;3.33;1.77;;;;;;;6.93;100.00;101648.44;5045008;28;20025;-58
2023/06/03 03:13:42;;;;;;;1.48;0.88;;;;;;;6.91;100.00;101639.00;5040180;28;20082;-53
2023/06/03 03:16:08;;;;;;;4.55;1.08;;;;;;;6.90;100.00;101640.00;5036245;28;20386;-54
2023/06/03 03:18:34;;;;;;;1.73;1.08;;;;;;;6.94;100.00;101639.59;5031841;28;20048;-54
2023/06/03 03:20:59;;;;;;;6.00;0.50;;;;;;;6.95;100.00;101643.06;5040947;28;20033;-52
2023/06/03 03:23:28;;;;;;;3.60;1.17;;;;;;;6.95;100.00;101641.25;5036572;28;20035;-55
2023/06/03 03:25:53;;;;;;;4.93;1.83;;;;;;;6.96;100.00;101648.16;5037694;28;20033;-53
2023/06/03 03:28:19;;;;;;;4.63;0.63;;;;;;;7.01;100.00;101644.28;5037780;28;20029;-53
2023/06/03 03:30:45;;;;;;;2.33;1.63;;;;;;;7.02;100.00;101645.94;5037767;28;20099;-56
2023/06/03 03:33:15;;;;;;;4.25;0.70;;;;;;;7.05;100.00;101645.66;5042531;28;20028;-53
2023/06/03 03:35:40;;;;;;;4.90;0.60;;;;;;;7.02;100.00;101640.66;5038953;28;20492;-52
2023/06/03 03:38:06;;;;;;;3.45;0.65;;;;;;;6.97;100.00;101646.38;5037787;28;20030;-57
2023/06/03 03:40:35;;;;;;;5.75;1.13;;;;;;;6.97;100.00;101652.50;5037791;28;20033;-53
2023/06/03 03:43:02;;;;;;;4.63;0.93;;;;;;;6.94;100.00;101644.88;5040214;28;20033;-54
2023/06/03 03:45:35;;;;;;;8.02;1.13;;;;;;;6.90;100.00;101643.47;5038356;28;20037;-56
2023/06/03 03:48:05;;;;;;;10.07;2.25;;;;;;;6.86;100.00;101647.34;5032118;28;20031;-51
2023/06/03 03:50:51;;;;;;;4.53;2.20;;;;;;;6.91;100.00;101641.66;5041249;28;20111;-52
2023/06/03 03:53:22;;;;;;;3.67;0.68;;;;;;;6.94;100.00;101642.22;5039261;28;20052;-55
2023/06/03 03:55:52;;;;;;;;;;;;;;;7.09;100.00;101645.25;5034199;28;20120;-52
2023/06/03 03:58:27;;;;;;;6.28;1.25;;;;;;;7.07;100.00;101652.47;5037406;28;20239;-50
2023/06/03 04:00:59;;;;;;;2.50;1.17;;;;;;;7.13;100.00;101657.19;5034150;28;20521;-50
2023/06/03 04:03:25;;;;;;;3.80;1.70;;;;;;;7.20;100.00;101650.41;5037458;28;20056;-52
2023/06/03 04:05:51;;;;;;;3.90;1.25;;;;;;;7.26;100.00;101651.63;5037605;28;20057;-52
2023/06/03 04:08:38;;;;;;;4.07;1.50;;;;;;;7.38;100.00;101654.94;5038429;28;20106;-50
2023/06/03 04:11:05;;;;;;;8.32;1.75;;;;;;;7.38;100.00;101652.31;5022005;28;20037;-51
2023/06/03 04:13:40;;;;;;;9.15;1.10;;;;;;;7.32;100.00;101656.34;5037038;28;20029;-51
2023/06/03 04:16:10;;;;;;;6.63;1.45;;;;;;;7.44;100.00;101659.66;5040889;28;20028;-51
2023/06/03 04:18:42;;;;;;;9.68;2.17;;;;;;;7.54;100.00;101657.84;5032798;28;20064;-50
2023/06/03 04:21:18;;;;;;;;;;;;;;;7.67;100.00;101659.31;5036209;28;20039;-50
2023/06/03 04:23:43;;;;;;;5.03;1.85;;;;;;;7.68;100.00;101658.38;5042356;28;20508;-52
2023/06/03 04:26:09;;;;;;;6.03;1.45;;;;;;;7.83;100.00;101651.66;5039909;28;20028;-53
2023/06/03 04:28:35;;;;;;;19.58;2.25;;;;;;;7.89;100.00;101658.16;5035493;28;20114;-50
2023/06/03 04:31:00;;;;;;;8.18;2.78;;;;;;;7.96;100.00;101656.59;5039994;28;20036;-50
2023/06/03 04:33:26;;;;;;;13.85;4.00;;;;;;;8.03;100.00;101647.13;5041817;28;20040;-51
2023/06/03 04:35:51;;;;;;;14.15;1.55;;;;;;;8.04;100.00;101654.91;5033667;28;20032;-50
2023/06/03 04:38:17;;;;;;;9.98;1.40;;;;;;;8.07;100.00;101645.84;5031104;28;20483;-52
2023/06/03 04:40:45;;;;;;;8.10;2.05;;;;;;;8.06;100.00;101647.66;5039850;28;20492;-50
2023/06/03 04:43:11;;;;;;;5.65;2.40;;;;;;;8.20;100.00;101651.63;5038381;28;20075;-51
2023/06/03 04:45:37;;;;;;;7.57;1.90;;;;;;;8.32;100.00;101656.72;5033554;28;20032;-54
2023/06/03 04:48:02;;;;;;;6.93;1.88;;;;;;;8.34;100.00;101652.94;5040556;28;20021;-57
2023/06/03 04:50:35;;;;;;;11.75;2.80;;;;;;;8.42;100.00;101657.53;5038890;28;20040;-51
2023/06/03 04:53:01;;;;;;;5.80;1.10;;;;;;;8.44;100.00;101661.69;5040255;28;20401;-51
2023/06/03 04:55:26;;;;;;;5.15;2.00;;;;;;;8.46;100.00;101659.72;5035597;28;20041;-55
2023/06/03 04:57:54;;;;;;;6.22;1.50;;;;;;;8.48;100.00;101656.94;5039486;28;20228;-52
2023/06/03 05:00:21;;;;;;;8.05;1.52;;;;;;;8.51;100.00;101656.63;5025035;28;20490;-55
2023/06/03 05:02:54;;;;;;;13.02;2.40;;;;;;;8.60;100.00;101660.22;5039496;28;20409;-53
2023/06/03 05:05:22;;;;;;;11.32;4.40;;;;;;;8.71;100.00;101659.97;5037306;28;20111;-55
2023/06/03 05:07:47;;;;;;;10.13;1.70;;;;;;;8.81;100.00;101657.28;5045676;28;20520;-55
2023/06/03 05:10:12;;;;;;;6.32;1.50;;;;;;;8.88;100.00;101659.16;5038520;28;20033;-52
2023/06/03 05:12:38;;;;;;;8.80;2.08;;;;;;;8.90;100.00;101659.81;5039874;28;20030;-53
2023/06/03 05:15:03;;;;;;;7.40;1.63;;;;;;;9.00;100.00;101670.34;5040175;28;20037;-50
2023/06/03 05:17:29;;;;;;;9.02;1.70;;;;;;;9.12;100.00;101671.78;5048632;28;20037;-54
2023/06/03 05:19:54;;;;;;;18.27;3.67;;;;;;;9.28;100.00;101667.59;5048431;28;20041;-54
2023/06/03 05:22:19;;;;;;;10.13;2.60;;;;;;;9.37;100.00;101664.00;5035066;28;20033;-50
2023/06/03 05:24:45;;;;;;;7.32;1.70;;;;;;;9.50;100.00;101668.91;5044756;28;20033;-53
2023/06/03 05:27:10;;;;;;;18.27;3.33;;;;;;;9.58;100.00;101656.56;5039434;28;20343;-56
2023/06/03 05:29:35;;;;;;;4.22;1.80;;;;;;;9.70;100.00;101667.72;5042962;28;20028;-58
2023/06/03 05:32:01;;;;;;;6.78;2.97;;;;;;;9.82;100.00;101660.34;5045017;28;20028;-52
2023/06/03 05:34:26;;;;;;;7.57;1.42;;;;;;;9.97;100.00;101657.94;5042931;28;20373;-56
2023/06/03 05:36:51;;;;;;;4.75;1.30;;;;;;;10.07;100.00;101660.47;5038348;28;20093;-53
2023/06/03 05:39:17;;;;;;;8.85;1.88;;;;;;;10.17;100.00;101659.38;5041212;28;20120;-57
2023/06/03 05:41:43;;;;;;;13.57;2.83;;;;;;;10.22;100.00;101658.88;5042387;28;20045;-56
2023/06/03 05:44:08;;;;;;;10.07;2.72;;;;;;;10.26;100.00;101654.91;5030957;28;20037;-56
2023/06/03 05:46:33;;;;;;;8.48;2.22;;;;;;;10.34;100.00;101662.94;5041736;28;20033;-55
2023/06/03 05:48:59;;;;;;;4.40;0.80;;;;;;;10.45;100.00;101657.34;5023156;28;20025;-58
2023/06/03 05:51:24;;;;;;;10.85;2.55;;;;;;;10.50;100.00;101666.63;5040104;28;20116;-53
2023/06/03 05:53:49;;;;;;;10.60;2.38;;;;;;;10.56;100.00;101660.66;5038710;28;20060;-50
2023/06/03 05:56:15;;;;;;;3.70;0.70;;;;;;;10.76;100.00;101677.13;5038840;28;20055;-56
2023/06/03 05:58:40;;;;;;;7.28;1.92;;;;;;;11.13;100.00;101674.84;5042348;28;20489;-56
2023/06/03 06:01:05;;;;;;;6.85;0.85;;;;;;;11.29;100.00;101674.03;5044900;28;20120;-54
2023/06/03 06:03:31;;;;;;;6.68;1.95;;;;;;;11.43;100.00;101669.03;5042745;28;20060;-55
2023/06/03 06:05:56;;;;;;;5.75;1.52;;;;;;;11.53;100.00;101665.19;5032358;28;20037;-56
2023/06/03 06:08:21;;;;;;;8.63;1.63;;;;;;;11.54;100.00;101669.53;5033013;28;20112;-54
2023/06/03 06:10:47;;;;;;;3.88;1.40;;;;;;;11.55;100.00;101663.22;5040224;28;20390;-55
2023/06/03 06:13:12;;;;;;;2.40;0.88;;;;;;;11.56;100.00;101667.53;5035255;28;20044;-55
2023/06/03 06:15:37;;;;;;;16.02;3.63;;;;;;;11.62;100.00;101666.03;5034146;28;20545;-54
2023/06/03 06:18:03;;;;;;;10.73;2.65;;;;;;;11.54;100.00;101661.56;5024696;28;20044;-57
2023/06/03 06:20:28;;;;;;;11.77;1.02;;;;;;;11.64;100.00;101657.88;5034003;28;20383;-57
2023/06/03 06:22:54;;;;;;;1.67;0.85;;;;;;;11.65;100.00;101655.06;5039874;28;20036;-57
2023/06/03 06:25:20;;;;;;;9.13;1.23;;;;;;;11.66;100.00;101646.06;5036705;28;20029;-57
2023/06/03 06:27:46;;;;;;;5.68;1.23;;;;;;;11.84;100.00;101645.03;5032080;28;20083;-56
2023/06/03 06:30:14;;;;;;;7.47;1.42;;;;;;;11.98;100.00;101645.19;5039265;28;20032;-52
2023/06/03 06:32:51;;;;;;;4.07;1.27;;;;;;;12.06;100.00;101643.53;5046369;28;20068;-55
2023/06/03 06:35:18;;;;;;;5.70;2.65;;;;;;;12.16;100.00;101649.47;5035432;28;20033;-54
2023/06/03 06:37:43;;;;;;;6.30;2.35;;;;;;;12.17;100.00;101643.13;5044889;28;20037;-54
2023/06/03 06:40:16;;;;;;;4.90;1.23;;;;;;;12.23;100.00;101642.44;5042933;28;20021;-57
2023/06/03 06:42:42;;;;;;;8.32;2.03;;;;;;;12.39;100.00;101634.38;5043553;28;20071;-55
2023/06/03 06:45:13;;;;;;;6.07;1.15;;;;;;;12.41;100.00;101637.69;5035669;28;20053;-57
2023/06/03 06:47:39;;;;;;;;;;;;;;;12.75;100.00;101633.84;5046416;28;20425;-54
2023/06/03 06:50:08;;;;;;;11.05;0.68;;;;;;;12.69;100.00;101633.69;5040877;28;19978;-54
2023/06/03 06:52:35;;;;;;;2.47;1.13;;;;;;;12.71;100.00;101637.84;5032430;28;20513;-56
2023/06/03 06:55:00;;;;;;;7.32;0.82;;;;;;;12.93;100.00;101643.34;5042019;28;20367;-59
2023/06/03 06:57:28;;;;;;;6.40;0.88;;;;;;;13.12;100.00;101631.38;5043323;28;20080;-54
2023/06/03 06:59:54;;;;;;;6.63;1.08;;;;;;;13.22;100.00;101630.13;5039071;28;20030;-54
2023/06/03 07:02:21;;;;;;;5.38;1.10;;;;;;;13.05;100.00;101632.09;5022656;28;20303;-56
2023/06/03 07:04:50;;;;;;;13.80;1.60;;;;;;;13.18;100.00;101622.66;5034463;28;20036;-56
2023/06/03 07:07:15;;;;;;;5.00;0.85;;;;;;;13.14;100.00;101632.00;5039296;28;20449;-52
2023/06/03 07:09:41;;;;;;;8.88;1.13;;;;;;;13.16;100.00;101638.81;5041756;28;20068;-62
2023/06/03 07:12:07;;;;;;;4.18;1.52;;;;;;;13.39;100.00;101630.00;5030136;28;20112;-59
2023/06/03 07:14:33;;;;;;;9.18;2.00;;;;;;;13.29;100.00;101635.56;5044515;28;20060;-56
2023/06/03 07:16:58;;;;;;;5.28;1.35;;;;;;;13.20;100.00;101637.47;5040165;28;20128;-56
2023/06/03 07:19:27;;;;;;;4.72;1.20;;;;;;;13.34;100.00;101632.38;5043034;28;20120;-59
2023/06/03 07:21:52;;;;;;;3.63;0.93;;;;;;;13.43;100.00;101636.63;5044189;28;20029;-59
2023/06/03 07:24:18;;;;;;;13.52;0.95;;;;;;;13.40;100.00;101631.63;5032608;28;20059;-55
2023/06/03 07:26:43;;;;;;;8.77;0.98;;;;;;;13.69;100.00;101637.00;5036452;28;20034;-60
2023/06/03 07:29:08;;;;;;;4.22;0.73;;;;;;;13.98;100.00;101635.34;5041086;28;20103;-60
2023/06/03 07:31:39;;;;;;;4.68;1.38;;;;;;;13.91;100.00;101635.28;5036244;28;20031;-56
2023/06/03 07:34:05;;;;;;;5.40;1.02;;;;;;;14.15;100.00;101633.31;5031780;28;20433;-57
2023/06/03 07:36:30;;;;;;;5.53;2.30;;;;;;;14.09;100.00;101631.38;5036159;28;20228;-58
2023/06/03 07:38:56;;;;;;;9.82;0.93;;;;;;;14.17;100.00;101637.44;5043368;28;20128;-58
2023/06/03 07:41:33;;;;;;;3.63;0.50;;;;;;;14.42;100.00;101639.78;5042598;28;21025;-59
2023/06/03 07:43:59;;;;;;;2.92;0.60;;;;;;;14.66;100.00;101637.78;5018510;28;20025;-53
2023/06/03 07:46:36;;;;;;;4.30;0.50;;;;;;;14.78;100.00;101641.63;5043764;28;20036;-54
2023/06/03 07:49:07;;;;;;;4.32;1.00;;;;;;;14.77;100.00;101646.13;5034867;28;20124;-57
2023/06/03 07:51:33;;;;;;;4.72;0.88;;;;;;;14.86;100.00;101649.50;5033250;28;20045;-58
2023/06/03 07:53:58;;;;;;;1.85;0.32;;;;;;;15.05;100.00;101648.06;5042439;28;20420;-56
2023/06/03 07:56:26;;;;;;;4.78;1.10;;;;;;;15.52;100.00;101648.41;5041780;28;20099;-56
2023/06/03 07:58:51;;;;;;;2.13;0.65;;;;;;;15.97;100.00;101647.03;5035530;28;20045;-58
2023/06/03 08:01:17;;;;;;;4.57;0.73;;;;;;;16.01;100.00;101636.78;5042241;28;20145;-59
2023/06/03 08:03:43;;;;;;;3.70;1.38;;;;;;;16.09;100.00;101639.28;5017060;28;20140;-50
2023/06/03 08:06:08;;;;;;;5.63;0.82;;;;;;;16.03;100.00;101638.25;5038918;28;20526;-55
2023/06/03 08:08:34;;;;;;;8.23;1.15;;;;;;;15.86;100.00;101648.44;5042516;28;20443;-56
2023/06/03 08:11:01;;;;;;;4.03;0.75;;;;;;;15.51;100.00;101650.22;5043628;28;20029;-59
2023/06/03 08:13:26;;;;;;;7.70;2.40;;;;;;;15.67;100.00;101651.81;5041013;28;20087;-59
2023/06/03 08:15:51;;;;;;;4.35;0.82;;;;;;;15.92;100.00;101649.50;5042925;28;20056;-57
2023/06/03 08:18:43;;;;;;;6.47;0.98;;;;;;;15.82;100.00;101649.03;5038078;28;20029;-52
2023/06/03 08:21:09;;;;;;;;;;;;;;;15.89;100.00;101644.53;5032930;28;20111;-55
2023/06/03 08:23:34;;;;;;;6.82;0.50;;;;;;;15.91;100.00;101639.81;5040282;28;20007;-59
2023/06/03 08:26:00;;;;;;;8.07;0.90;;;;;;;16.02;100.00;101625.06;5019508;28;20060;-59
2023/06/03 08:28:26;;;;;;;9.10;0.65;;;;;;;16.04;100.00;101631.03;5038973;28;20025;-58
2023/06/03 08:30:53;;;;;;;3.03;1.02;;;;;;;16.04;100.00;101636.38;5041709;28;20561;-56
2023/06/03 08:33:18;;;;;;;3.33;0.82;;;;;;;16.19;100.00;101629.03;5033875;28;20384;-54
2023/06/03 08:35:44;;;;;;;6.95;0.90;;;;;;;16.40;100.00;101627.25;5024837;28;20060;-61
2023/06/03 08:38:10;;;;;;;2.97;0.50;;;;;;;16.56;100.00;101624.22;5032087;28;20024;-60
2023/06/03 08:40:45;;;;;;;3.80;0.50;;;;;;;17.00;100.00;101625.53;5035461;28;20071;-56
2023/06/03 08:43:11;;;;;;;1.92;0.20;;;;;;;17.37;100.00;101629.44;5039823;28;20037;-58
2023/06/03 08:45:44;;;;;;;3.25;0.32;;;;;;;17.52;100.00;101623.00;5044145;28;20044;-56
2023/06/03 08:48:16;;;;;;;4.60;0.77;;;;;;;17.35;100.00;101625.31;5040487;28;20037;-58
2023/06/03 08:50:48;;;;;;;7.30;1.27;;;;;;;17.38;100.00;101612.31;5041363;28;20036;-55
2023/06/03 08:53:14;;;;;;;9.25;1.08;;;;;;;17.39;100.00;101613.94;5041194;28;20059;-53
2023/06/03 08:55:40;;;;;;;3.83;0.63;;;;;;;17.59;100.00;101615.78;5035271;28;20041;-58
2023/06/03 08:58:05;;;;;;;14.35;1.77;;;;;;;17.88;100.00;101612.63;5041787;28;20118;-58
2023/06/03 09:00:32;;;;;;;2.08;0.32;;;;;;;18.15;100.00;101611.69;5040108;28;20060;-57
2023/06/03 09:02:58;;;;;;;4.05;0.60;;;;;;;18.36;100.00;101619.44;5031470;28;20041;-61
2023/06/03 09:05:24;;;;;;;2.47;1.13;;;;;;;18.53;100.00;101609.00;5028979;28;20156;-62
2023/06/03 09:07:53;;;;;;;7.20;2.10;;;;;;;18.62;100.00;101606.91;5036275;28;20037;-52
2023/06/03 09:10:25;;;;;;;4.70;0.43;;;;;;;18.73;100.00;101593.56;5038376;28;20037;-56
2023/06/03 09:12:54;;;;;;;2.63;0.43;;;;;;;18.65;100.00;101601.91;5034826;28;20095;-62
2023/06/03 09:15:20;;;;;;;2.78;0.35;;;;;;;18.68;100.00;101600.66;5036445;28;20094;-58
2023/06/03 09:17:45;;;;;;;6.00;0.40;;;;;;;18.87;100.00;101605.09;5036557;28;20431;-49
2023/06/03 09:20:12;;;;;;;5.82;1.77;;;;;;;18.77;100.00;101594.00;5041837;28;20067;-61
2023/06/03 09:22:41;;;;;;;3.95;0.52;;;;;;;18.95;100.00;101602.13;5025375;28;20095;-57
2023/06/03 09:25:07;;;;;;;6.90;0.93;;;;;;;19.00;100.00;101611.38;5034846;28;20033;-54
2023/06/03 09:27:32;;;;;;;3.15;0.70;;;;;;;18.95;100.00;101606.69;5033996;28;20047;-54
2023/06/03 09:29:59;;;;;;;4.25;0.63;;;;;;;19.14;100.00;101599.47;5038170;28;20036;-60
2023/06/03 09:32:25;;;;;;;1.00;0.40;;;;;;;19.56;100.00;101603.19;5027958;28;20494;-54
2023/06/03 09:34:53;;;;;;;7.22;1.55;;;;;;;19.48;100.00;101605.38;5040274;28;20063;-59
